Latest Weather Observations for Ballera

IDQ60801

Issued at 7:42 am EST Monday 20 August 2018 (issued every 10 minutes, with the page automatically refreshed every 10 minutes)

About weather observations | Map of weather stations | Latest weather observations for QLD | Other Formats
Station Details ID: 045009 Name: BALLERA GAS FIELD Lat: -27.40 Lon: 141.81 Height: 114.5 m
Data from the previous 72 hours. | See also: Recent months at Ballera
Date/Time
EST
Temp
°C
App
Temp
°C
Dew
Point
°C
Rel
Hum
%
Delta-T
°C
Wind Press
QNH
hPa
Press
MSL
hPa
Rain since
9am
mm
Dir  Spd
km/h
Gust
km/h
Spd
kts
Gust
kts
20/07:30am 5.9 1.4 -3.2 52 3.2 SE 11 19 6 10 1028.0 1027.9 0.0
20/07:00am 5.3 0.8 -3.2 54 3.0 SE 11 11 6 6 1028.0 1027.9 0.0
20/06:30am 5.2 0.3 -3.6 53 3.1 SE 13 15 7 8 1027.4 1027.3 0.0
20/06:00am 5.1 0.5 -3.9 52 3.1 SE 11 13 6 7 1027.0 1026.9 0.0
20/05:30am 5.4 0.4 -3.9 51 3.2 SE 13 13 7 7 1026.8 1026.7 0.0
20/05:00am 6.4 1.5 -3.2 50 3.4 SE 13 15 7 8 1026.6 1026.5 0.0
20/04:30am 6.6 1.3 -3.3 49 3.6 SE 15 17 8 9 1026.5 1026.4 0.0
20/04:00am 7.0 1.4 -3.2 48 3.7 SSE 17 19 9 10 1026.5 1026.4 0.0
20/03:30am 7.7 2.1 -3.2 46 4.0 SSE 17 20 9 11 1026.6 1026.5 0.0
20/03:00am 8.5 2.4 -2.7 45 4.1 SSE 20 24 11 13 1026.8 1026.7 0.0
20/02:30am 8.6 2.5 -2.6 45 4.2 SSE 20 22 11 12 1026.6 1026.5 0.0
20/02:00am 9.0 3.4 -2.6 44 4.3 S 17 20 9 11 1026.7 1026.6 0.0
20/01:30am 8.9 3.7 -3.0 43 4.4 S 15 17 8 9 1027.0 1026.9 0.0
20/01:00am 9.3 3.7 -2.9 42 4.5 S 17 19 9 10 1027.4 1027.3 0.0
20/12:30am 9.7 3.7 -3.2 40 4.8 S 19 22 10 12 1027.7 1027.6 0.0
20/12:00am 9.9 3.9 -3.4 39 4.9 S 19 20 10 11 1028.0 1027.9 0.0
 
Date/Time
EST
Temp
°C
App
Temp
°C
Dew
Point
°C
Rel
Hum
%
Delta-T
°C
Wind Press
QNH
hPa
Press
MSL
hPa
Rain since
9am
mm
Dir  Spd
km/h
Gust
km/h
Spd
kts
Gust
kts
19/11:30pm 10.3 4.1 -3.4 38 5.1 S 20 22 11 12 1028.1 1028.0 0.0
19/11:00pm 10.9 4.6 -3.9 35 5.5 S 20 24 11 13 1028.1 1028.0 0.0
19/10:30pm 11.4 5.1 -3.9 34 5.7 S 20 26 11 14 1028.1 1028.0 0.0
19/10:00pm 11.7 5.0 -4.0 33 5.8 S 22 24 12 13 1028.2 1028.1 0.0
19/09:30pm 11.7 5.9 -4.4 32 6.0 S 17 20 9 11 1028.2 1028.1 0.0
19/09:00pm 12.3 6.5 -4.3 31 6.2 S 17 20 9 11 1028.0 1027.9 0.0
19/08:30pm 12.6 6.8 -4.9 29 6.5 S 17 19 9 10 1027.8 1027.7 0.0
19/08:00pm 13.5 7.7 -4.6 28 6.8 S 17 19 9 10 1027.4 1027.3 0.0
19/07:30pm 14.3 8.5 -4.4 27 7.2 S 17 20 9 11 1027.0 1026.9 0.0
19/07:00pm 15.1 9.0 -4.2 26 7.4 S 19 22 10 12 1026.7 1026.6 0.0
19/06:30pm 15.8 9.5 -4.2 25 7.8 S 20 26 11 14 1026.3 1026.2 0.0
19/06:00pm 16.6 8.7 -4.6 23 8.2 S 28 35 15 19 1026.2 1026.1 0.0
19/05:30pm 17.5 9.5 -5.7 20 8.9 S 28 37 15 20 1026.1 1026.0 0.0
19/05:00pm 18.0 10.4 -5.3 20 9.1 S 26 33 14 18 1025.9 1025.8 0.0
19/04:30pm 18.1 10.1 -5.9 19 9.3 SSE 28 41 15 22 1025.7 1025.6 0.0
19/04:00pm 18.3 9.9 -5.7 19 9.3 S 30 39 16 21 1025.5 1025.4 0.0
19/03:30pm 18.2 10.6 -5.8 19 9.3 SSE 26 39 14 21 1025.7 1025.6 0.0
19/03:00pm 18.6 11.4 -5.4 19 9.4 SSE 24 35 13 19 1025.8 1025.7 0.0
19/02:30pm 17.9 11.1 -5.3 20 9.1 SSE 22 33 12 18 1026.2 1026.1 0.0
19/02:00pm 17.6 9.8 -3.7 23 8.5 SSE 28 39 15 21 1026.4 1026.3 0.0
19/01:30pm 16.9 9.5 -3.8 24 8.3 SSE 26 35 14 19 1026.8 1026.7 0.0
19/01:00pm 16.7 9.5 -2.4 27 7.8 SE 26 35 14 19 1027.1 1027.0 0.0
19/12:30pm 16.3 9.5 -1.7 29 7.5 SSE 24 35 13 19 1027.5 1027.4 0.0
19/12:00pm 16.8 10.5 -1.3 29 7.6 SSE 22 35 12 19 1027.8 1027.7 0.0
19/11:30am 15.6 8.2 -1.0 32 6.9 SSE 28 35 15 19 1028.2 1028.1 0.0
19/11:00am 14.4 7.3 -1.6 33 6.5 SSE 26 39 14 21 1028.4 1028.3 0.0
19/10:30am 14.1 6.7 -0.7 36 6.1 SSE 28 35 15 19 1028.5 1028.4 0.0
19/10:00am 13.3 5.6 -0.3 39 5.6 SSE 30 35 16 19 1028.5 1028.4 0.0
19/09:30am 12.4 4.1 -0.1 42 5.2 SSE 33 41 18 22 1028.4 1028.3 0.0
19/09:00am 11.4 4.1 -0.1 45 4.7 SSE 28 39 15 21 1028.3 1028.2 0.0
19/08:30am 10.4 3.0 -0.4 47 4.3 S 28 33 15 18 1027.9 1027.8 0.0
19/08:00am 9.5 2.9 -0.7 49 4.0 S 24 28 13 15 1027.4 1027.3 0.0
19/07:30am 8.7 2.8 -0.6 52 3.7 S 20 24 11 13 1026.9 1026.8 0.0
19/07:00am 8.5 2.2 -0.8 52 3.6 S 22 26 12 14 1026.3 1026.2 0.0
19/06:30am 8.8 2.5 -1.0 50 3.8 SSE 22 28 12 15 1026.0 1025.9 0.0
19/06:00am 9.5 2.9 -0.7 49 4.0 S 24 30 13 16 1025.6 1025.5 0.0
19/05:30am 9.5 2.8 -1.2 47 4.2 SSE 24 28 13 15 1025.1 1025.0 0.0
19/05:00am 9.9 2.7 -1.8 44 4.5 S 26 30 14 16 1024.7 1024.6 0.0
19/04:30am 10.3 3.1 -2.4 41 4.9 S 26 32 14 17 1024.4 1024.3 0.0
19/04:00am 10.7 3.4 -2.7 39 5.1 S 26 32 14 17 1024.1 1024.0 0.0
19/03:30am 11.2 3.5 -2.9 37 5.4 S 28 35 15 19 1024.0 1023.9 0.0
19/03:00am 11.3 4.4 -2.8 37 5.4 S 24 32 13 17 1023.8 1023.7 0.0
19/02:30am 11.2 4.7 -2.6 38 5.3 S 22 28 12 15 1023.6 1023.5 0.0
19/02:00am 11.9 5.0 -2.7 36 5.6 S 24 30 13 16 1023.4 1023.3 0.0
19/01:30am 11.9 5.8 -2.3 37 5.6 S 20 24 11 13 1023.2 1023.1 0.0
19/01:00am 12.1 6.0 -2.5 36 5.7 S 20 24 11 13 1023.2 1023.1 0.0
19/12:30am 12.5 6.6 -2.5 35 5.9 S 19 22 10 12 1023.1 1023.0 0.0
19/12:00am 12.9 7.0 -2.2 35 6.0 S 19 22 10 12 1023.0 1022.8 0.0
 
Date/Time
EST
Temp
°C
App
Temp
°C
Dew
Point
°C
Rel
Hum
%
Delta-T
°C
Wind Press
QNH
hPa
Press
MSL
hPa
Rain since
9am
mm
Dir  Spd
km/h
Gust
km/h
Spd
kts
Gust
kts
18/11:30pm 13.7 7.8 -1.9 34 6.3 S 19 22 10 12 1022.9 1022.7 0.0
18/11:00pm 14.7 8.0 -1.4 33 6.6 S 24 30 13 16 1022.7 1022.5 0.0
18/10:30pm 15.4 8.7 -1.2 32 6.9 SSW 24 30 13 16 1022.2 1022.0 0.0
18/10:00pm 16.1 9.3 -1.9 29 7.4 SW 24 30 13 16 1021.9 1021.7 0.0
18/09:30pm 16.7 10.3 -1.4 29 7.6 SW 22 28 12 15 1021.5 1021.3 0.0
18/09:00pm 17.5 11.5 -1.7 27 8.0 SW 20 32 11 17 1021.1 1020.9 0.0
18/08:30pm 18.0 12.0 -1.8 26 8.3 SW 20 26 11 14 1020.6 1020.5 0.0
18/08:00pm 18.4 13.1 -0.9 27 8.3 SW 17 22 9 12 1020.2 1020.1 0.0
18/07:30pm 19.2 12.9 -0.7 26 8.7 SW 22 24 12 13 1019.9 1019.8 0.0
18/07:00pm 20.0 14.1 -0.6 25 9.0 SSW 20 24 11 13 1019.5 1019.4 0.0
18/06:30pm 21.2 13.5 -0.1 24 9.5 SW 30 39 16 21 1018.9 1018.8 0.0
18/06:00pm 22.3 14.1 -1.1 21 10.3 SW 32 41 17 22 1018.6 1018.5 0.0
18/05:30pm 23.2 14.5 -0.3 21 10.7 SW 35 46 19 25 1018.1 1018.0 0.0
18/05:00pm 23.8 15.2 0.2 21 10.8 SW 35 46 19 25 1017.8 1017.7 0.0
18/04:30pm 24.3 16.6 -0.1 20 11.2 WSW 30 44 16 24 1017.7 1017.6 0.0
18/04:00pm 24.7 16.1 0.3 20 11.3 WSW 35 43 19 23 1017.6 1017.5 0.0
18/03:40pm 24.9 16.9 0.4 20 11.4 WSW 32 56 17 30 1017.5 1017.4 0.0
18/03:30pm 24.9 16.9 0.4 20 11.4 WSW 32 41 17 22 1017.5 1017.4 0.0
18/03:07pm 25.4 17.5 0.8 20 11.6 WSW 32 50 17 27 1017.4 1017.3 0.0
18/03:00pm 24.9 16.9 0.4 20 11.4 WSW 32 41 17 22 1017.4 1017.3 0.0
18/02:30pm 25.1 17.4 -0.1 19 11.6 WSW 30 41 16 22 1017.6 1017.5 0.0
18/02:00pm 26.2 19.0 0.8 19 12.0 WSW 28 39 15 21 1017.8 1017.7 0.0
18/01:49pm 26.1 18.9 0.7 19 12.0 WSW 28 46 15 25 1017.8 1017.7 0.0
18/01:30pm 25.8 18.7 1.2 20 11.7 SW 28 39 15 21 1018.0 1017.9 0.0
18/01:00pm 25.1 17.9 0.6 20 11.4 WSW 28 39 15 21 1018.4 1018.3 0.0
18/12:30pm 24.5 18.9 0.1 20 11.3 W 19 28 10 15 1018.9 1018.8 0.0
18/12:00pm 23.7 20.5 0.7 22 10.6 WSW 7 15 4 8 1019.3 1019.2 0.0
18/11:30am 22.5 19.2 0.4 23 10.1 NE 7 11 4 6 1019.6 1019.5 0.0
18/11:00am 22.6 19.3 -0.2 22 10.3 NE 7 11 4 6 1019.9 1019.8 0.0
18/10:30am 21.8 18.1 -0.2 23 9.9 NE 9 13 5 7 1020.2 1020.1 0.0
18/10:00am 20.4 16.1 -2.0 22 9.6 NE 11 15 6 8 1020.1 1020.0 0.0
18/09:30am 18.9 13.9 -4.5 20 9.4 NE 13 17 7 9 1020.0 1019.9 0.0
18/09:00am 17.8 13.6 -3.6 23 8.6 WNW 9 11 5 6 1020.1 1020.0 0.0
18/08:30am 16.3 12.8 -3.2 26 7.8 WNW 6 9 3 5 1020.0 1019.9 0.0
18/08:00am 13.9 11.5 -2.9 31 6.6 CALM 0 0 0 0 1019.7 1019.6 0.0
18/07:30am 13.4 11.2 -1.7 35 6.1 CALM 0 0 0 0 1019.3 1019.2 0.0
18/07:00am 11.9 8.5 -1.9 38 5.4 WNW 6 7 3 4 1018.9 1018.8 0.0
18/06:30am 10.7 6.3 -2.3 40 5.0 WNW 11 13 6 7 1018.6 1018.5 0.0
18/06:00am 10.4 5.9 -3.3 38 5.1 WNW 11 15 6 8 1018.3 1018.2 0.0
18/05:30am 12.8 9.0 -3.5 32 6.3 WSW 7 9 4 5 1017.9 1017.8 0.0
18/05:00am 12.8 8.3 -3.5 32 6.3 WSW 11 13 6 7 1017.5 1017.4 0.0
18/04:30am 13.4 9.3 -2.9 32 6.4 WSW 9 9 5 5 1017.5 1017.4 0.0
18/04:00am 13.7 10.1 -2.3 33 6.4 WSW 7 9 4 5 1017.5 1017.4 0.0
18/03:30am 12.8 9.2 -2.3 35 6.0 WSW 7 9 4 5 1017.4 1017.3 0.0
18/03:00am 13.4 9.0 -2.5 33 6.3 WSW 11 11 6 6 1017.5 1017.4 0.0
18/02:30am 13.4 9.4 -2.1 34 6.2 WSW 9 11 5 6 1017.6 1017.5 0.0
18/02:00am 12.8 8.3 -3.0 33 6.1 WSW 11 13 6 7 1017.8 1017.7 0.0
18/01:30am 13.2 8.7 -3.1 32 6.3 WSW 11 11 6 6 1018.0 1017.9 0.0
18/01:00am 13.0 8.2 -2.9 33 6.2 WSW 13 13 7 7 1017.9 1017.8 0.0
18/12:30am 13.5 8.2 -3.3 31 6.5 WSW 15 17 8 9 1017.8 1017.7 0.0
18/12:00am 13.3 7.6 -3.4 31 6.5 WSW 17 17 9 9 1017.7 1017.6 0.0
 
Date/Time
EST
Temp
°C
App
Temp
°C
Dew
Point
°C
Rel
Hum
%
Delta-T
°C
Wind Press
QNH
hPa
Press
MSL
hPa
Rain since
9am
mm
Dir  Spd
km/h
Gust
km/h
Spd
kts
Gust
kts
17/11:30pm 14.4 8.4 -2.9 30 6.9 WSW 19 20 10 11 1017.8 1017.7 0.0
17/11:00pm 14.4 8.8 -2.9 30 6.8 WSW 17 19 9 10 1017.7 1017.6 0.0
17/10:30pm 15.0 9.8 -2.4 30 7.0 WSW 15 17 8 9 1017.8 1017.7 0.0
17/10:00pm 14.9 10.0 -3.0 29 7.1 WSW 13 15 7 8 1017.9 1017.8 0.0
17/09:30pm 16.2 11.4 -2.3 28 7.6 WSW 13 15 7 8 1017.6 1017.5 0.0
17/09:00pm 16.8 12.1 -1.8 28 7.7 SW 13 15 7 8 1017.3 1017.2 0.0
17/08:30pm 17.4 13.1 -1.3 28 7.9 SW 11 13 6 7 1016.9 1016.8 0.0
17/08:00pm 18.8 13.8 -1.1 26 8.5 SW 15 17 8 9 1016.7 1016.6 0.0
17/07:30pm 19.8 14.9 -0.2 26 8.8 SW 15 17 8 9 1016.2 1016.1 0.0
17/07:00pm 20.6 15.7 -0.7 24 9.4 SW 15 19 8 10 1015.8 1015.7 0.0
17/06:30pm 21.9 16.6 -0.8 22 10.1 SW 17 22 9 12 1015.4 1015.2 0.0
17/06:00pm 23.0 17.7 -0.5 21 10.6 WSW 17 22 9 12 1015.1 1014.9 0.0
17/05:30pm 24.0 18.2 -0.3 20 11.1 SW 20 26 11 14 1014.9 1014.7 0.0
17/05:00pm 24.3 19.5 -0.1 20 11.2 WSW 15 24 8 13 1014.7 1014.5 0.0
17/04:30pm 24.1 18.3 -0.2 20 11.1 WSW 20 28 11 15 1014.7 1014.5 0.0
17/04:00pm 24.5 19.3 0.1 20 11.3 WSW 17 24 9 13 1014.6 1014.4 0.0
17/03:30pm 24.6 18.7 -0.5 19 11.5 W 20 32 11 17 1014.7 1014.5 0.0
17/03:00pm 25.1 20.4 0.6 20 11.5 WSW 15 24 8 13 1015.0 1014.8 0.0
17/02:30pm 24.7 20.3 0.3 20 11.3 WSW 13 28 7 15 1015.3 1015.1 0.0
17/02:00pm 23.6 19.3 1.3 23 10.4 WSW 13 20 7 11 1015.5 1015.3 0.0
17/01:30pm 23.5 20.0 1.2 23 10.4 W 9 15 5 8 1016.0 1015.9 0.0
17/01:00pm 22.9 19.1 1.9 25 9.9 SW 11 19 6 10 1016.5 1016.4 0.0
17/12:30pm 22.0 19.0 2.2 27 9.3 SSW 7 13 4 7 1017.1 1017.0 0.0
17/12:00pm 22.3 19.6 2.9 28 9.3 SE 6 13 3 7 1017.4 1017.3 0.0
17/11:30am 20.8 17.5 2.6 30 8.6 SE 9 13 5 7 1017.9 1017.8 0.0
17/11:00am 20.4 17.1 2.3 30 8.4 SE 9 15 5 8 1018.2 1018.1 0.0
17/10:30am 19.6 15.5 2.0 31 8.1 SE 13 17 7 9 1018.4 1018.3 0.0
17/10:00am 17.9 13.6 1.0 32 7.5 ESE 13 17 7 9 1018.4 1018.3 0.0
17/09:30am 16.9 11.8 0.5 33 7.2 SE 17 19 9 10 1018.3 1018.2 0.0
17/09:00am 15.3 9.8 0.3 36 6.4 SE 19 20 10 11 1018.2 1018.1 0.0
17/08:30am 14.2 9.1 0.5 39 5.8 SE 17 20 9 11 1018.0 1017.9 0.0
17/08:00am 12.9 8.6 1.3 45 5.0 SSE 13 15 7 8 1017.8 1017.7 0.0

Other Formats:

Comma delimited format used in spreadsheet applications
http://www.bom.gov.au/fwo/IDQ60801/IDQ60801.95487.axf

JavaScript Object Notation format (JSON) in row-major order
http://www.bom.gov.au/fwo/IDQ60801/IDQ60801.95487.json